Terminal Aerodrome Forecast
Issued by NWS

Home | Current Version | Previous Version | Text Only | Print | Product List | Glossary On
Versions: 1 2 3 4 5 6 7 8 9 10 11 12 13 14
000
FTUS41 KRNK 282335
TAFLWB
TAF
KLWB 282335Z 2900/2924 00000KT P6SM SCT250
      TEMPO 2909/2913 1SM BR SCT001
     FM291500 23006KT P6SM SCT060=

USA.gov is the U.S. government's official web portal to all federal, state and local government web resources and services.